Time;durP1;ratioP1;P1;durP2;ratioP2;P2;SDS_P1;SDS_P2;PMS_P1;PMS_P2;Temp;Humidity;BMP_temperature;BMP_pressure;BME280_temperature;BME280_humidity;BME280_pressure;Samples;Min_cycle;Max_cycle;Signal;HPM_P1;HPM_P2
2023/01/09 00:01:17;;;;;;;;;;;6.40;99.90;;;;;;5022180;28;19928;-72
2023/01/09 00:03:42;;;;;;;;;;;6.40;99.90;;;;;;5024314;28;19925;-72
2023/01/09 00:06:08;;;;;;;;;;;6.40;99.90;;;;;;5028958;28;19932;-72
2023/01/09 00:08:34;;;;;;;;;;;6.50;99.90;;;;;;5041118;28;19983;-72
2023/01/09 00:11:02;;;;;;;;;;;6.50;99.90;;;;;;5030470;28;19921;-72
2023/01/09 00:13:40;;;;;;;;;;;6.50;99.90;;;;;;5025983;28;19928;-72
2023/01/09 00:16:09;;;;;;;;;;;6.40;99.90;;;;;;5038398;28;20869;-72
2023/01/09 00:18:35;;;;;;;;;;;6.40;99.90;;;;;;5026141;28;19929;-72
2023/01/09 00:21:05;;;;;;;;;;;6.40;99.90;;;;;;5034491;28;19928;-72
2023/01/09 00:23:34;;;;;;;;;;;6.40;99.90;;;;;;5024081;28;19932;-72
2023/01/09 00:26:00;;;;;;;;;;;6.50;99.90;;;;;;5038601;28;20016;-72
2023/01/09 00:28:26;;;;;;;;;;;6.50;99.90;;;;;;5021682;28;19921;-72
2023/01/09 00:30:59;;;;;;;;;;;6.50;99.90;;;;;;5024616;28;19976;-72
2023/01/09 00:33:27;;;;;;;;;;;6.50;99.90;;;;;;5034343;28;19922;-72
2023/01/09 00:35:53;;;;;;;;;;;6.50;99.90;;;;;;5007313;28;20371;-72
2023/01/09 00:38:18;;;;;;;;;;;6.50;99.90;;;;;;5037909;28;19948;-73
2023/01/09 00:40:44;;;;;;;;;;;6.50;99.90;;;;;;5009069;28;19972;-72
2023/01/09 00:43:09;;;;;;;;;;;6.50;99.90;;;;;;5005140;28;19999;-73
2023/01/09 00:45:35;;;;;;;;;;;6.50;99.90;;;;;;5007928;28;20008;-73
2023/01/09 00:48:02;;;;;;;;;;;6.50;99.90;;;;;;4991039;28;19921;-72
2023/01/09 00:50:29;;;;;;;;;;;6.40;99.90;;;;;;5024053;28;20236;-73
2023/01/09 00:53:01;;;;;;;;;;;6.40;99.90;;;;;;5007663;28;19926;-73
2023/01/09 00:55:27;;;;;;;;;;;6.40;99.90;;;;;;5008245;28;19929;-73
2023/01/09 00:57:54;;;;;;;;;;;6.50;99.90;;;;;;5025682;28;19921;-73
2023/01/09 01:00:19;;;;;;;;;;;6.50;99.90;;;;;;5024767;28;19928;-75
2023/01/09 01:02:45;;;;;;;;;;;6.50;99.90;;;;;;5028007;28;19925;-75
2023/01/09 01:07:55;;;;;;;;;;;6.60;99.90;;;;;;5023776;28;20306;-76
2023/01/09 01:10:22;;;;;;;;;;;6.60;99.90;;;;;;5010544;28;19925;-76
2023/01/09 01:12:48;;;;;;;;;;;6.60;99.90;;;;;;5040604;28;20405;-75
2023/01/09 01:15:16;;;;;;;;;;;6.60;99.90;;;;;;5026872;28;19921;-75
2023/01/09 01:17:42;;;;;;;;;;;6.60;99.90;;;;;;5011205;28;20040;-74
2023/01/09 01:20:11;;;;;;;;;;;6.60;99.90;;;;;;5029559;28;19971;-74
2023/01/09 01:22:46;;;;;;;;;;;6.50;99.90;;;;;;5026241;28;20367;-74
2023/01/09 01:25:18;;;;;;;;;;;6.50;99.90;;;;;;5012384;28;19927;-74
2023/01/09 01:27:44;;;;;;;;;;;6.40;99.90;;;;;;5007347;28;20008;-74
2023/01/09 01:30:10;;;;;;;;;;;6.40;99.90;;;;;;5029050;28;20012;-74
2023/01/09 01:32:40;;;;;;;;;;;6.30;99.90;;;;;;5011433;28;19921;-74
2023/01/09 01:35:09;;;;;;;;;;;6.30;99.90;;;;;;5038424;28;19929;-74
2023/01/09 01:37:35;;;;;;;;;;;6.20;99.90;;;;;;5036247;28;20318;-74
2023/01/09 01:40:01;;;;;;;;;;;6.20;99.90;;;;;;5025250;28;19921;-74
2023/01/09 01:42:26;;;;;;;;;;;6.10;99.90;;;;;;5011683;28;20026;-73
2023/01/09 01:45:01;;;;;;;;;;;6.10;99.90;;;;;;5009915;28;19936;-73
2023/01/09 01:47:48;;;;;;;;;;;6.10;99.90;;;;;;5026075;28;19921;-73
2023/01/09 01:50:19;;;;;;;;;;;6.00;99.90;;;;;;5032356;28;20024;-74
2023/01/09 01:52:47;;;;;;;;;;;6.00;99.90;;;;;;5026259;28;19925;-73
2023/01/09 01:55:14;;;;;;;;;;;6.10;99.90;;;;;;5028302;28;20314;-73
2023/01/09 01:57:41;;;;;;;;;;;6.10;99.90;;;;;;5027871;28;19921;-73
2023/01/09 02:00:07;;;;;;;;;;;6.20;99.90;;;;;;5012821;28;19944;-73
2023/01/09 02:02:36;;;;;;;;;;;6.20;99.90;;;;;;5011537;28;19937;-73
2023/01/09 02:05:03;;;;;;;;;;;6.30;99.90;;;;;;5024960;28;19929;-73
2023/01/09 02:07:29;;;;;;;;;;;6.30;99.90;;;;;;5027429;28;19956;-73
2023/01/09 02:09:55;;;;;;;;;;;6.30;99.90;;;;;;5028557;28;21495;-73
2023/01/09 02:12:25;;;;;;;;;;;6.30;99.90;;;;;;5023171;28;19979;-73
2023/01/09 02:14:59;;;;;;;;;;;6.30;99.90;;;;;;5027420;28;19929;-73
2023/01/09 02:17:24;;;;;;;;;;;6.30;99.90;;;;;;5027204;28;20436;-73
2023/01/09 02:19:56;;;;;;;;;;;6.30;99.90;;;;;;5029666;28;19929;-73
2023/01/09 02:22:32;;;;;;;;;;;6.30;99.90;;;;;;5027761;28;19971;-73
2023/01/09 02:25:26;;;;;;;;;;;6.30;99.90;;;;;;5026752;28;19929;-73
2023/01/09 02:27:58;;;;;;;;;;;6.30;99.90;;;;;;5041472;28;19990;-73
2023/01/09 02:30:42;;;;;;;;;;;6.30;99.90;;;;;;5029410;28;19961;-73
2023/01/09 02:33:46;;;;;;;;;;;6.20;99.90;;;;;;5011464;28;19925;-74
2023/01/09 02:36:37;;;;;;;;;;;6.20;99.90;;;;;;5028962;28;19921;-74
2023/01/09 02:39:11;;;;;;;;;;;6.10;99.90;;;;;;5024916;28;19928;-74
2023/01/09 02:41:37;;;;;;;;;;;6.10;99.90;;;;;;5026276;28;19951;-73
2023/01/09 02:44:16;;;;;;;;;;;6.10;99.90;;;;;;5011332;28;19924;-74
2023/01/09 02:47:02;;;;;;;;;;;6.10;99.90;;;;;;5043326;28;19974;-74
2023/01/09 02:49:28;;;;;;;;;;;6.10;99.90;;;;;;5028629;28;19928;-74
2023/01/09 02:52:12;;;;;;;;;;;6.10;99.90;;;;;;5027426;28;19925;-74
2023/01/09 02:54:44;;;;;;;;;;;6.00;99.90;;;;;;5015300;28;19979;-74
2023/01/09 02:57:19;;;;;;;;;;;6.00;99.90;;;;;;5041310;28;19921;-74
2023/01/09 02:59:54;;;;;;;;;;;5.90;99.90;;;;;;5039183;28;19933;-74
2023/01/09 03:02:33;;;;;;;;;;;5.90;99.90;;;;;;5040196;28;20028;-74
2023/01/09 03:05:04;;;;;;;;;;;5.90;99.90;;;;;;5027305;28;20003;-74
2023/01/09 03:07:39;;;;;;;;;;;5.80;99.90;;;;;;5011393;28;20294;-74
2023/01/09 03:10:13;;;;;;;;;;;5.80;99.90;;;;;;5027717;28;20074;-74
2023/01/09 03:12:40;;;;;;;;;;;5.80;99.90;;;;;;5037858;28;19936;-74
2023/01/09 03:15:09;;;;;;;;;;;5.80;99.90;;;;;;4995758;28;19921;-74
2023/01/09 03:17:36;;;;;;;;;;;5.70;99.90;;;;;;5037578;28;19928;-74
2023/01/09 03:20:07;;;;;;;;;;;5.60;99.90;;;;;;5025343;28;19928;-74
2023/01/09 03:22:40;;;;;;;;;;;5.60;99.90;;;;;;5027175;28;19932;-74
2023/01/09 03:25:05;;;;;;;;;;;5.50;99.90;;;;;;5028383;28;19921;-74
2023/01/09 03:27:37;;;;;;;;;;;5.50;99.90;;;;;;5040605;28;19929;-74
2023/01/09 03:30:06;;;;;;;;;;;5.50;99.90;;;;;;5043510;28;19928;-74
2023/01/09 03:32:37;;;;;;;;;;;5.50;99.90;;;;;;5027903;28;19943;-74
2023/01/09 03:35:06;;;;;;;;;;;5.40;99.90;;;;;;4993350;28;20313;-73
2023/01/09 03:37:38;;;;;;;;;;;5.40;99.90;;;;;;5027949;28;20079;-73
2023/01/09 03:40:04;;;;;;;;;;;5.40;99.90;;;;;;5037898;28;19929;-73
2023/01/09 03:42:30;;;;;;;;;;;5.30;99.90;;;;;;5010181;28;19925;-74
2023/01/09 03:44:55;;;;;;;;;;;5.20;99.90;;;;;;5025412;28;19921;-73
2023/01/09 03:47:24;;;;;;;;;;;4.70;99.90;;;;;;5011430;28;20386;-73
2023/01/09 03:49:52;;;;;;;;;;;5.20;99.90;;;;;;5025006;28;20026;-74
2023/01/09 03:52:24;;;;;;;;;;;5.10;99.90;;;;;;5027180;28;19972;-73
2023/01/09 03:55:02;;;;;;;;;;;5.10;99.90;;;;;;5026896;28;20578;-73
2023/01/09 03:57:37;;;;;;;;;;;5.00;99.90;;;;;;5011150;28;20292;-73
2023/01/09 04:00:03;;;;;;;;;;;5.00;99.90;;;;;;5024046;28;20030;-73
2023/01/09 04:02:36;;;;;;;;;;;5.00;99.90;;;;;;5037053;28;20385;-73
2023/01/09 04:05:02;;;;;;;;;;;5.00;99.90;;;;;;5038270;28;19921;-74
2023/01/09 04:07:28;;;;;;;;;;;4.90;99.90;;;;;;5025641;28;19928;-73
2023/01/09 04:09:53;;;;;;;;;;;4.90;99.90;;;;;;5024771;28;20777;-73
2023/01/09 04:12:19;;;;;;;;;;;5.00;99.90;;;;;;5023136;28;19921;-73
2023/01/09 04:14:45;;;;;;;;;;;4.90;99.90;;;;;;5008189;28;20184;-73
2023/01/09 04:17:10;;;;;;;;;;;5.00;99.90;;;;;;5007070;28;19921;-73
2023/01/09 04:19:36;;;;;;;;;;;4.90;99.90;;;;;;5007355;28;20421;-73
2023/01/09 04:22:05;;;;;;;;;;;5.00;99.90;;;;;;5035102;28;19929;-73
2023/01/09 04:24:36;;;;;;;;;;;5.00;99.90;;;;;;5024987;28;19975;-73
2023/01/09 04:27:02;;;;;;;;;;;4.90;99.90;;;;;;5024293;28;19921;-73
2023/01/09 04:29:28;;;;;;;;;;;4.90;99.90;;;;;;5024384;28;20031;-73
2023/01/09 04:31:54;;;;;;;;;;;4.90;99.90;;;;;;5022101;28;19968;-73
2023/01/09 04:34:24;;;;;;;;;;;4.80;99.90;;;;;;5039375;28;19928;-73
2023/01/09 04:36:53;;;;;;;;;;;4.80;99.90;;;;;;5033992;28;20012;-73
2023/01/09 04:39:25;;;;;;;;;;;4.80;99.90;;;;;;5023466;28;20004;-73
2023/01/09 04:41:50;;;;;;;;;;;4.70;99.90;;;;;;5036072;28;20419;-73
2023/01/09 04:44:17;;;;;;;;;;;4.60;99.90;;;;;;5006416;28;19921;-73
2023/01/09 04:46:42;;;;;;;;;;;4.60;99.90;;;;;;5018898;28;19929;-73
2023/01/09 04:49:08;;;;;;;;;;;4.60;99.90;;;;;;5025076;28;19928;-73
2023/01/09 04:51:34;;;;;;;;;;;4.60;99.90;;;;;;5034301;28;20049;-73
2023/01/09 04:54:00;;;;;;;;;;;4.50;99.90;;;;;;5019986;28;20294;-73
2023/01/09 04:56:25;;;;;;;;;;;4.40;99.90;;;;;;5008289;28;19987;-73
2023/01/09 04:58:51;;;;;;;;;;;4.40;99.90;;;;;;5036058;28;19921;-73
2023/01/09 05:01:17;;;;;;;;;;;4.30;99.90;;;;;;5006172;28;19929;-73
2023/01/09 05:03:42;;;;;;;;;;;4.30;99.90;;;;;;5034121;28;20319;-73
2023/01/09 05:06:14;;;;;;;;;;;4.30;99.90;;;;;;5017537;28;19929;-73
2023/01/09 05:08:46;;;;;;;;;;;4.30;99.90;;;;;;5022730;28;19921;-73
2023/01/09 05:11:11;;;;;;;;;;;4.30;99.90;;;;;;5007282;28;19944;-73
2023/01/09 05:13:37;;;;;;;;;;;4.30;99.90;;;;;;5037380;28;20422;-73
2023/01/09 05:16:08;;;;;;;;;;;4.40;99.90;;;;;;5035563;28;19921;-73
2023/01/09 05:18:55;;;;;;;;;;;4.40;99.90;;;;;;5020184;28;19940;-73
2023/01/09 05:21:21;;;;;;;;;;;4.50;99.90;;;;;;5008593;28;20421;-73
2023/01/09 05:23:47;;;;;;;;;;;4.50;99.90;;;;;;5024095;28;20035;-73
2023/01/09 05:26:12;;;;;;;;;;;4.50;99.90;;;;;;5007448;28;19982;-73
2023/01/09 05:28:38;;;;;;;;;;;4.60;99.90;;;;;;5019268;28;19921;-73
2023/01/09 05:31:04;;;;;;;;;;;4.60;99.90;;;;;;4991019;28;20063;-73
2023/01/09 05:33:29;;;;;;;;;;;4.50;99.90;;;;;;5022906;28;19922;-73
2023/01/09 05:36:04;;;;;;;;;;;4.50;99.90;;;;;;5033650;28;19925;-73
2023/01/09 05:38:42;;;;;;;;;;;4.50;99.90;;;;;;5004511;28;19975;-73
2023/01/09 05:41:08;;;;;;;;;;;4.40;99.90;;;;;;5018564;28;20020;-73
2023/01/09 05:43:42;;;;;;;;;;;4.50;99.90;;;;;;5020677;28;19945;-73
2023/01/09 05:46:08;;;;;;;;;;;4.40;99.90;;;;;;5038738;28;19932;-73
2023/01/09 05:48:33;;;;;;;;;;;4.50;99.90;;;;;;5040494;28;19921;-73
2023/01/09 05:50:59;;;;;;;;;;;4.50;99.90;;;;;;5038386;28;20331;-73
2023/01/09 05:53:24;;;;;;;;;;;4.50;99.90;;;;;;5024823;28;19929;-73
2023/01/09 05:55:53;;;;;;;;;;;4.50;99.90;;;;;;5036792;28;19932;-73
2023/01/09 05:58:32;;;;;;;;;;;4.40;99.90;;;;;;5004783;28;19933;-73
2023/01/09 06:01:03;;;;;;;;;;;4.50;99.90;;;;;;5024067;28;19921;-73
2023/01/09 06:03:46;;;;;;;;;;;4.40;99.90;;;;;;5024973;28;20012;-73
2023/01/09 06:06:13;;;;;;;;;;;4.40;99.90;;;;;;5041801;28;20023;-74
2023/01/09 06:08:47;;;;;;;;;;;4.40;99.90;;;;;;5026474;28;19936;-73
2023/01/09 06:11:25;;;;;;;;;;;4.40;99.90;;;;;;5009390;28;20390;-73
2023/01/09 06:13:50;;;;;;;;;;;4.40;99.90;;;;;;5023331;28;19925;-73
2023/01/09 06:16:16;;;;;;;;;;;4.40;99.90;;;;;;5042225;28;19975;-73
2023/01/09 06:18:41;;;;;;;;;;;4.40;99.90;;;;;;5025623;28;19973;-73
2023/01/09 06:21:07;;;;;;;;;;;4.40;99.90;;;;;;5038774;28;19929;-73
2023/01/09 06:23:33;;;;;;;;;;;4.50;99.90;;;;;;5008048;28;19936;-73
2023/01/09 06:26:01;;;;;;;;;;;4.70;99.90;;;;;;5010499;28;20283;-73
2023/01/09 06:28:30;;;;;;;;;;;4.60;99.90;;;;;;5023654;28;20298;-73
2023/01/09 06:30:58;;;;;;;;;;;4.70;99.90;;;;;;5010679;28;20203;-73
2023/01/09 06:33:43;;;;;;;;;;;4.70;99.90;;;;;;5040698;28;19969;-73
2023/01/09 06:36:09;;;;;;;;;;;4.70;99.90;;;;;;5010535;28;19936;-73
2023/01/09 06:38:34;;;;;;;;;;;4.70;99.90;;;;;;5009670;28;19921;-73
2023/01/09 06:41:22;;;;;;;;;;;4.80;99.90;;;;;;5036593;28;19921;-73
2023/01/09 06:43:48;;;;;;;;;;;4.70;99.90;;;;;;5035867;28;20024;-73
2023/01/09 06:46:26;;;;;;;;;;;4.60;99.90;;;;;;5036638;28;20367;-73
2023/01/09 06:48:58;;;;;;;;;;;4.60;99.90;;;;;;5009079;28;20015;-73
2023/01/09 06:51:30;;;;;;;;;;;4.60;99.90;;;;;;5017637;28;20031;-73
2023/01/09 06:53:56;;;;;;;;;;;4.50;99.90;;;;;;5041745;28;19929;-73
2023/01/09 06:56:21;;;;;;;;;;;4.50;99.90;;;;;;5025816;28;19936;-73
2023/01/09 06:58:47;;;;;;;;;;;4.50;99.90;;;;;;5035766;28;19921;-73
2023/01/09 07:01:13;;;;;;;;;;;4.40;99.90;;;;;;5025485;28;19928;-73
2023/01/09 07:03:47;;;;;;;;;;;4.30;99.90;;;;;;5025630;28;20019;-73
2023/01/09 07:06:17;;;;;;;;;;;4.30;99.90;;;;;;5020077;28;19947;-73
2023/01/09 07:08:46;;;;;;;;;;;4.20;99.90;;;;;;5036600;28;20422;-72
2023/01/09 07:11:18;;;;;;;;;;;4.20;99.90;;;;;;5020079;28;20346;-73
2023/01/09 07:13:44;;;;;;;;;;;4.10;99.90;;;;;;5010891;28;20367;-72
2023/01/09 07:16:12;;;;;;;;;;;4.10;99.90;;;;;;5030119;28;19957;-73
2023/01/09 07:18:38;;;;;;;;;;;4.10;99.90;;;;;;5013186;28;20030;-73
2023/01/09 07:21:07;;;;;;;;;;;4.10;99.90;;;;;;5020338;28;19922;-73
2023/01/09 07:23:32;;;;;;;;;;;4.00;99.90;;;;;;5007622;28;19925;-73
2023/01/09 07:25:59;;;;;;;;;;;4.00;99.90;;;;;;5016203;28;20020;-73
2023/01/09 07:28:24;;;;;;;;;;;4.00;99.90;;;;;;5028163;28;19925;-73
2023/01/09 07:30:50;;;;;;;;;;;4.00;99.90;;;;;;4994646;28;19972;-73
2023/01/09 07:33:16;;;;;;;;;;;4.00;99.90;;;;;;5033854;28;19921;-73
2023/01/09 07:35:44;;;;;;;;;;;4.00;99.90;;;;;;5022825;28;19928;-73
2023/01/09 07:38:10;;;;;;;;;;;4.00;99.90;;;;;;5009746;28;19986;-73
2023/01/09 07:40:36;;;;;;;;;;;4.10;99.90;;;;;;5027915;28;20375;-73
2023/01/09 07:43:02;;;;;;;;;;;4.20;99.90;;;;;;5028349;28;19929;-73
2023/01/09 07:45:33;;;;;;;;;;;4.20;99.90;;;;;;5029258;28;20401;-73
2023/01/09 07:47:59;;;;;;;;;;;4.30;99.90;;;;;;4994503;28;19922;-73
2023/01/09 07:50:30;;;;;;;;;;;4.30;99.90;;;;;;5012600;28;19971;-73
2023/01/09 07:52:56;;;;;;;;;;;4.40;99.90;;;;;;5028936;28;19921;-73
2023/01/09 07:55:21;;;;;;;;;;;4.40;99.90;;;;;;5008594;28;19925;-73
2023/01/09 07:57:50;;;;;;;;;;;4.50;99.90;;;;;;5020542;28;20240;-73
2023/01/09 08:00:22;;;;;;;;;;;4.60;99.90;;;;;;5010631;28;20362;-73
2023/01/09 08:02:52;;;;;;;;;;;4.60;99.90;;;;;;5012273;28;19951;-73
2023/01/09 08:05:20;;;;;;;;;;;4.60;99.90;;;;;;4996371;28;19968;-73
2023/01/09 08:07:46;;;;;;;;;;;4.60;99.90;;;;;;5027059;28;19929;-73
2023/01/09 08:10:21;;;;;;;;;;;4.60;99.90;;;;;;5012222;28;19921;-73
2023/01/09 08:12:50;;;;;;;;;;;4.70;99.90;;;;;;5007275;28;19929;-73
2023/01/09 08:15:16;;;;;;;;;;;4.70;99.90;;;;;;4991203;28;20442;-73
2023/01/09 08:17:42;;;;;;;;;;;4.70;99.90;;;;;;4974444;28;20108;-73
2023/01/09 08:20:12;;;;;;;;;;;4.70;99.90;;;;;;4974811;28;20095;-73
2023/01/09 08:22:40;;;;;;;;;;;4.80;99.90;;;;;;4995168;28;19935;-73
2023/01/09 08:25:09;;;;;;;;;;;4.80;99.90;;;;;;4970385;28;19944;-73
2023/01/09 08:27:34;;;;;;;;;;;4.80;99.90;;;;;;4995101;28;19921;-73
2023/01/09 08:30:23;;;;;;;;;;;4.80;99.90;;;;;;4990885;28;20350;-73
2023/01/09 08:32:54;;;;;;;;;;;4.90;99.90;;;;;;4989608;28;19980;-73
2023/01/09 08:35:19;;;;;;;;;;;4.90;99.90;;;;;;4970856;28;19976;-73
2023/01/09 08:37:46;;;;;;;;;;;4.90;99.90;;;;;;4984998;28;20342;-73
2023/01/09 08:40:12;;;;;;;;;;;5.00;99.90;;;;;;4975115;28;19960;-73
2023/01/09 08:48:19;;;;;;;;;;;5.10;99.90;;;;;;5006458;28;20348;-73
2023/01/09 08:50:52;;;;;;;;;;;5.10;99.90;;;;;;5006266;28;19921;-73
2023/01/09 08:53:18;;;;;;;;;;;5.20;99.90;;;;;;4996209;28;19954;-73
2023/01/09 08:55:44;;;;;;;;;;;5.20;99.90;;;;;;5037974;28;19930;-73
2023/01/09 08:58:18;;;;;;;;;;;5.20;99.90;;;;;;5025169;28;19927;-73
2023/01/09 09:00:47;;;;;;;;;;;5.20;99.90;;;;;;5028883;28;19922;-74
2023/01/09 09:03:12;;;;;;;;;;;5.20;99.90;;;;;;5028084;28;19925;-73
2023/01/09 09:05:41;;;;;;;;;;;5.30;99.90;;;;;;5029719;28;19928;-73
2023/01/09 09:08:07;;;;;;;;;;;5.30;99.90;;;;;;5026331;28;19927;-73
2023/01/09 09:10:32;;;;;;;;;;;5.30;99.90;;;;;;5034243;28;20008;-73
2023/01/09 09:12:58;;;;;;;;;;;5.30;99.90;;;;;;5017344;28;19925;-73
2023/01/09 09:15:25;;;;;;;;;;;5.40;99.90;;;;;;5031169;28;19922;-73
2023/01/09 09:17:57;;;;;;;;;;;5.40;99.90;;;;;;4985543;28;19928;-73
2023/01/09 09:20:24;;;;;;;;;;;5.40;99.90;;;;;;5031845;28;19921;-74
2023/01/09 09:22:50;;;;;;;;;;;5.40;99.90;;;;;;5032016;28;19933;-74
2023/01/09 09:25:18;;;;;;;;;;;5.40;99.90;;;;;;5032391;28;20407;-74
2023/01/09 09:27:44;;;;;;;;;;;5.50;99.90;;;;;;5012978;28;19991;-74
2023/01/09 09:30:11;;;;;;;;;;;5.50;99.90;;;;;;5031609;28;20382;-73
2023/01/09 09:32:40;;;;;;;;;;;5.50;99.90;;;;;;5015378;28;19928;-73
2023/01/09 09:35:14;;;;;;;;;;;5.60;99.90;;;;;;5031394;28;20030;-73
2023/01/09 09:37:45;;;;;;;;;;;5.60;99.90;;;;;;5029063;28;19921;-73
2023/01/09 09:40:31;;;;;;;;;;;5.70;99.90;;;;;;5030324;28;19928;-73
2023/01/09 09:46:31;;;;;;;;;;;5.80;99.90;;;;;;5030504;28;19921;-73
2023/01/09 09:49:07;;;;;;;;;;;5.80;99.90;;;;;;5026373;28;20012;-73
2023/01/09 09:51:32;;;;;;;;;;;5.80;99.90;;;;;;5019785;28;19921;-73
2023/01/09 09:54:10;;;;;;;;;;;5.90;99.90;;;;;;5021936;28;20387;-73
2023/01/09 09:56:41;;;;;;;;;;;5.90;99.90;;;;;;5028651;28;19948;-73
2023/01/09 09:59:19;;;;;;;;;;;6.00;99.90;;;;;;5014705;28;19921;-74
2023/01/09 10:01:54;;;;;;;;;;;6.00;99.90;;;;;;5031092;28;19936;-73
2023/01/09 10:04:24;;;;;;;;;;;6.00;99.90;;;;;;5031162;28;19921;-74
2023/01/09 10:06:53;;;;;;;;;;;6.00;99.90;;;;;;5028878;28;20530;-73
2023/01/09 10:09:37;;;;;;;;;;;6.00;99.90;;;;;;5031170;28;20298;-73
2023/01/09 10:12:06;;;;;;;;;;;6.00;99.90;;;;;;5036786;28;19929;-73
2023/01/09 10:14:32;;;;;;;;;;;6.10;99.90;;;;;;5013067;28;19963;-73
2023/01/09 10:17:27;;;;;;;;;;;6.10;99.90;;;;;;5024420;28;19964;-74
2023/01/09 10:20:14;;;;;;;;;;;6.10;99.90;;;;;;5018147;28;19922;-73
2023/01/09 10:22:45;;;;;;;;;;;6.10;99.90;;;;;;5030388;28;19983;-73
2023/01/09 10:25:25;;;;;;;;;;;6.10;99.90;;;;;;5028880;28;20330;-73
2023/01/09 10:28:03;;;;;;;;;;;6.10;99.90;;;;;;5010570;28;19928;-73
2023/01/09 10:30:29;;;;;;;;;;;6.10;99.90;;;;;;5022514;28;20346;-73
2023/01/09 10:33:04;;;;;;;;;;;6.10;99.90;;;;;;5026695;28;19928;-74
2023/01/09 10:35:36;;;;;;;;;;;6.10;99.90;;;;;;5043626;28;20015;-73
2023/01/09 10:38:03;;;;;;;;;;;6.10;99.90;;;;;;5010451;28;19925;-73
2023/01/09 10:40:31;;;;;;;;;;;6.10;99.90;;;;;;5026879;28;19925;-73
2023/01/09 10:42:59;;;;;;;;;;;6.00;99.90;;;;;;5027895;28;19925;-73
2023/01/09 10:45:30;;;;;;;;;;;6.00;99.90;;;;;;5027251;28;19929;-74
2023/01/09 10:48:01;;;;;;;;;;;6.00;99.90;;;;;;5010507;28;19925;-74
2023/01/09 10:50:32;;;;;;;;;;;6.00;99.90;;;;;;5023032;28;20024;-74
2023/01/09 10:52:59;;;;;;;;;;;6.00;99.90;;;;;;5022530;28;19983;-73
2023/01/09 10:55:33;;;;;;;;;;;6.00;99.90;;;;;;5009104;28;19928;-73
2023/01/09 10:58:02;;;;;;;;;;;6.00;99.90;;;;;;5024011;28;20220;-74
2023/01/09 11:00:30;;;;;;;;;;;6.00;99.90;;;;;;5013346;28;19975;-73
2023/01/09 11:03:01;;;;;;;;;;;6.00;99.90;;;;;;5037306;28;19926;-73
2023/01/09 11:05:28;;;;;;;;;;;6.10;99.90;;;;;;5028641;28;19990;-73
2023/01/09 11:08:05;;;;;;;;;;;6.10;99.90;;;;;;5029988;28;19987;-73
2023/01/09 11:10:46;;;;;;;;;;;6.10;99.90;;;;;;5035014;28;19929;-73
2023/01/09 11:13:20;;;;;;;;;;;6.10;99.90;;;;;;5028168;28;20333;-73
2023/01/09 11:15:58;;;;;;;;;;;6.10;99.90;;;;;;5027327;28;19928;-73
2023/01/09 11:18:25;;;;;;;;;;;6.20;99.90;;;;;;5019039;28;20495;-73
2023/01/09 11:20:51;;;;;;;;;;;6.10;99.90;;;;;;4992005;28;19973;-73
2023/01/09 11:23:35;;;;;;;;;;;6.10;99.90;;;;;;5021114;28;19933;-73
2023/01/09 11:26:07;;;;;;;;;;;6.10;99.90;;;;;;5013551;28;19928;-74
2023/01/09 11:28:35;;;;;;;;;;;6.10;99.90;;;;;;5002689;28;19921;-73
2023/01/09 11:31:04;;;;;;;;;;;6.10;99.90;;;;;;4996896;28;20251;-74
2023/01/09 11:33:35;;;;;;;;;;;6.10;99.90;;;;;;5029633;28;19928;-73
2023/01/09 11:36:12;;;;;;;;;;;6.10;99.90;;;;;;5029948;28;19921;-73
2023/01/09 11:38:48;;;;;;;;;;;6.10;99.90;;;;;;5029744;28;19929;-73
2023/01/09 11:41:22;;;;;;;;;;;6.10;99.90;;;;;;5028972;28;20385;-74
2023/01/09 11:43:52;;;;;;;;;;;6.10;99.90;;;;;;5017704;28;19925;-73
2023/01/09 11:46:32;;;;;;;;;;;6.10;99.90;;;;;;5029143;28;19979;-74
2023/01/09 11:49:04;;;;;;;;;;;6.10;99.90;;;;;;5039229;28;19928;-73
2023/01/09 11:51:34;;;;;;;;;;;6.10;99.90;;;;;;5011153;28;19948;-73
2023/01/09 11:54:12;;;;;;;;;;;6.10;99.90;;;;;;5028909;28;19933;-73
2023/01/09 11:56:38;;;;;;;;;;;6.10;99.90;;;;;;5012207;28;19926;-74
2023/01/09 11:59:18;;;;;;;;;;;6.10;99.90;;;;;;5017575;28;19947;-73
2023/01/09 12:02:06;;;;;;;;;;;6.20;99.90;;;;;;5031393;28;20035;-73
2023/01/09 12:04:49;;;;;;;;;;;6.10;99.90;;;;;;5033657;28;19948;-73
2023/01/09 12:07:18;;;;;;;;;;;6.10;99.90;;;;;;5037773;28;20405;-74
2023/01/09 12:09:53;;;;;;;;;;;6.10;99.90;;;;;;5038702;28;19928;-74
2023/01/09 12:12:55;;;;;;;;;;;6.10;99.90;;;;;;5018272;28;19929;-74
2023/01/09 12:15:36;;;;;;;;;;;6.10;99.90;;;;;;4990685;28;20025;-74
2023/01/09 12:18:08;;;;;;;;;;;6.10;99.90;;;;;;5020376;28;19921;-74
2023/01/09 12:20:53;;;;;;;;;;;6.10;99.90;;;;;;5034846;28;19928;-74
2023/01/09 12:23:28;;;;;;;;;;;6.10;99.90;;;;;;5027572;28;19979;-74
2023/01/09 12:26:35;;;;;;;;;;;6.10;99.90;;;;;;5029205;28;19975;-74
2023/01/09 12:29:14;;;;;;;;;;;6.10;99.90;;;;;;4980039;28;19928;-74
2023/01/09 12:31:45;;;;;;;;;;;6.10;99.90;;;;;;4972228;28;19922;-74
2023/01/09 12:34:31;;;;;;;;;;;6.10;99.90;;;;;;4987491;28;19968;-74
2023/01/09 12:36:58;;;;;;;;;;;6.10;99.90;;;;;;5025703;28;20497;-74
2023/01/09 12:39:26;;;;;;;;;;;6.10;99.90;;;;;;5028487;28;19944;-74
2023/01/09 12:41:59;;;;;;;;;;;6.10;99.90;;;;;;5026101;28;19929;-74
2023/01/09 12:44:43;;;;;;;;;;;6.20;99.90;;;;;;5006445;28;19932;-74
2023/01/09 12:47:24;;;;;;;;;;;6.20;99.90;;;;;;5028042;28;20367;-74
2023/01/09 12:49:56;;;;;;;;;;;6.20;99.90;;;;;;5026222;28;20060;-74
2023/01/09 12:52:30;;;;;;;;;;;6.20;99.90;;;;;;5000996;28;19975;-74
2023/01/09 12:55:18;;;;;;;;;;;6.30;99.90;;;;;;5027591;28;19966;-74
2023/01/09 12:57:47;;;;;;;;;;;6.30;99.90;;;;;;5011545;28;19925;-74
2023/01/09 13:00:23;;;;;;;;;;;6.30;99.90;;;;;;5018672;28;20357;-74
2023/01/09 13:02:56;;;;;;;;;;;6.30;99.90;;;;;;5028047;28;20004;-74
2023/01/09 13:05:31;;;;;;;;;;;6.30;99.90;;;;;;5028686;28;20367;-74
2023/01/09 13:07:57;;;;;;;;;;;6.30;99.90;;;;;;5011278;28;19928;-74
2023/01/09 13:10:48;;;;;;;;;;;6.40;99.90;;;;;;5042736;28;20387;-74
2023/01/09 13:13:33;;;;;;;;;;;6.40;99.90;;;;;;5026846;28;20415;-74
2023/01/09 13:16:08;;;;;;;;;;;6.40;99.90;;;;;;5021277;28;19936;-74
2023/01/09 13:18:48;;;;;;;;;;;6.40;99.90;;;;;;5028053;28;19969;-74
2023/01/09 13:21:21;;;;;;;;;;;6.40;99.90;;;;;;5023921;28;19928;-74
2023/01/09 13:23:47;;;;;;;;;;;6.40;99.90;;;;;;5004080;28;19973;-74
2023/01/09 13:26:19;;;;;;;;;;;6.50;99.90;;;;;;5029427;28;19967;-74
2023/01/09 13:28:51;;;;;;;;;;;6.40;99.90;;;;;;5010092;28;20406;-74
2023/01/09 13:31:29;;;;;;;;;;;6.50;99.90;;;;;;5026239;28;19993;-74
2023/01/09 13:33:56;;;;;;;;;;;6.50;99.90;;;;;;5011872;28;19921;-74
2023/01/09 13:36:27;;;;;;;;;;;6.50;99.90;;;;;;5033559;28;19999;-74
2023/01/09 13:38:56;;;;;;;;;;;6.50;99.90;;;;;;5038356;28;20003;-73
2023/01/09 13:44:27;;;;;;;;;;;6.60;99.90;;;;;;5024687;28;19925;-73
2023/01/09 13:46:57;;;;;;;;;;;6.50;99.90;;;;;;5011911;28;19925;-73
2023/01/09 13:49:35;;;;;;;;;;;6.50;99.90;;;;;;5032810;28;19929;-73
2023/01/09 13:52:05;;;;;;;;;;;6.60;99.90;;;;;;5012718;28;19940;-73
2023/01/09 13:54:46;;;;;;;;;;;6.60;99.90;;;;;;5029660;28;19920;-73
2023/01/09 13:57:17;;;;;;;;;;;6.60;99.90;;;;;;5024857;28;20294;-73
2023/01/09 13:59:43;;;;;;;;;;;6.60;99.90;;;;;;5007941;28;19964;-74
2023/01/09 14:02:31;;;;;;;;;;;6.60;99.90;;;;;;5026137;28;20453;-74
2023/01/09 14:04:56;;;;;;;;;;;6.60;99.90;;;;;;5025999;28;19982;-74
2023/01/09 14:07:29;;;;;;;;;;;6.60;99.90;;;;;;5025706;28;20269;-74
2023/01/09 14:09:57;;;;;;;;;;;6.70;99.90;;;;;;5035952;28;19946;-74
2023/01/09 14:12:23;;;;;;;;;;;6.70;99.90;;;;;;5036537;28;19933;-73
2023/01/09 14:14:50;;;;;;;;;;;6.70;99.90;;;;;;5019345;28;20345;-73
2023/01/09 14:17:20;;;;;;;;;;;6.70;99.90;;;;;;5035394;28;21036;-73
2023/01/09 14:19:54;;;;;;;;;;;6.70;99.90;;;;;;5017769;28;19920;-74
2023/01/09 14:22:24;;;;;;;;;;;6.70;99.90;;;;;;5026529;28;20331;-73
2023/01/09 14:24:51;;;;;;;;;;;6.70;99.90;;;;;;5008327;28;19924;-74
2023/01/09 14:27:36;;;;;;;;;;;6.80;99.90;;;;;;5026208;28;20175;-74
2023/01/09 14:30:20;;;;;;;;;;;6.80;99.90;;;;;;5034016;28;19978;-73
2023/01/09 14:32:54;;;;;;;;;;;6.80;99.90;;;;;;5016160;28;19983;-74
2023/01/09 14:35:49;;;;;;;;;;;6.80;99.90;;;;;;5029213;28;19935;-74
2023/01/09 14:38:49;;;;;;;;;;;6.80;99.90;;;;;;5040995;28;19940;-74
2023/01/09 14:41:18;;;;;;;;;;;6.90;99.90;;;;;;5006147;28;20264;-74
2023/01/09 14:43:47;;;;;;;;;;;6.90;99.90;;;;;;5025494;28;20320;-73
2023/01/09 14:46:17;;;;;;;;;;;6.90;99.90;;;;;;5010153;28;19928;-73
2023/01/09 14:48:56;;;;;;;;;;;6.90;99.90;;;;;;5012209;28;19924;-74
2023/01/09 14:51:23;;;;;;;;;;;6.90;99.90;;;;;;5008501;28;19929;-74
2023/01/09 14:53:50;;;;;;;;;;;6.90;99.90;;;;;;5027116;28;19956;-74
2023/01/09 14:56:27;;;;;;;;;;;6.90;99.90;;;;;;5027570;28;19936;-74
2023/01/09 14:59:03;;;;;;;;;;;6.90;99.90;;;;;;5019214;28;19983;-74
2023/01/09 15:01:31;;;;;;;;;;;6.80;99.90;;;;;;5029600;28;19928;-74
2023/01/09 15:03:59;;;;;;;;;;;6.80;99.90;;;;;;5014423;28;19929;-75
2023/01/09 15:06:27;;;;;;;;;;;6.80;99.90;;;;;;5009501;28;19991;-74
2023/01/09 15:09:00;;;;;;;;;;;6.80;99.90;;;;;;5034812;28;20243;-74